Time;durP1;ratioP1;P1;durP2;ratioP2;P2;SDS_P1;SDS_P2;PMS_P1;PMS_P2;Temp;Humidity;BMP_temperature;BMP_pressure;BME280_temperature;BME280_humidity;BME280_pressure;Samples;Min_cycle;Max_cycle;Signal;HPM_P1;HPM_P2
2020/12/14 00:01:15;;;;;;;5.82;2.17;;;;;;;;;;4375685;32;20139;-79
2020/12/14 00:03:40;;;;;;;7.83;2.30;;;;;;;;;;4361647;32;20202;-79
2020/12/14 00:06:07;;;;;;;3.63;2.13;;;;;;;;;;4375586;32;20138;-79
2020/12/14 00:08:53;;;;;;;5.20;2.00;;;;;;;;;;4375115;32;20167;-79
2020/12/14 00:11:28;;;;;;;;;;;;;;;;;;;;;
2020/12/14 00:14:03;;;;;;;8.20;2.20;;;;;;;;;;4375445;32;20180;-79
2020/12/14 00:16:37;;;;;;;5.07;2.30;;;;;;;;;;4375489;32;20172;-80
2020/12/14 00:19:02;;;;;;;7.30;2.00;;;;;;;;;;4375887;32;20556;-80
2020/12/14 00:21:27;;;;;;;9.70;2.10;;;;;;;;;;4361851;32;20166;-79
2020/12/14 00:23:52;;;;;;;6.93;2.20;;;;;;;;;;4361302;32;20174;-80
2020/12/14 00:26:19;;;;;;;7.97;2.30;;;;;;;;;;4375434;32;20155;-80
2020/12/14 00:28:47;;;;;;;5.33;2.00;;;;;;;;;;4361673;32;20622;-79
2020/12/14 00:31:13;;;;;;;5.20;2.20;;;;;;;;;;4375059;32;20139;-80
2020/12/14 00:33:40;;;;;;;6.07;2.17;;;;;;;;;;4361239;32;20186;-80
2020/12/14 00:36:06;;;;;;;4.70;2.10;;;;;;;;;;4361209;32;20162;-79
2020/12/14 00:38:32;;;;;;;6.27;2.20;;;;;;;;;;4361177;32;20608;-79
2020/12/14 00:40:57;;;;;;;8.52;2.70;;;;;;;;;;4375166;32;20162;-79
2020/12/14 00:43:23;;;;;;;5.33;2.03;;;;;;;;;;4375298;32;20216;-79
2020/12/14 00:45:48;;;;;;;9.77;2.25;;;;;;;;;;4361009;32;20229;-79
2020/12/14 00:48:13;;;;;;;4.90;1.80;;;;;;;;;;4361283;32;20192;-79
2020/12/14 00:50:38;;;;;;;3.45;1.60;;;;;;;;;;4361340;32;20212;-79
2020/12/14 00:53:03;;;;;;;5.10;1.80;;;;;;;;;;4361090;32;20170;-79
2020/12/14 00:55:29;;;;;;;5.00;1.77;;;;;;;;;;4361125;32;20209;-79
2020/12/14 00:57:54;;;;;;;5.20;1.87;;;;;;;;;;4374652;32;20548;-79
2020/12/14 01:00:19;;;;;;;3.47;1.40;;;;;;;;;;4374646;32;20339;-80
2020/12/14 01:02:45;;;;;;;1.65;1.20;;;;;;;;;;4361586;32;20174;-80
2020/12/14 01:05:16;;;;;;;3.57;1.57;;;;;;;;;;4360999;32;20568;-79
2020/12/14 01:07:42;;;;;;;3.92;1.40;;;;;;;;;;4361878;32;20162;-80
2020/12/14 01:10:07;;;;;;;3.25;1.50;;;;;;;;;;4374670;32;20182;-79
2020/12/14 01:12:33;;;;;;;5.00;1.70;;;;;;;;;;4361178;32;20477;-79
2020/12/14 01:14:59;;;;;;;2.15;1.50;;;;;;;;;;4361036;32;20257;-79
2020/12/14 01:17:24;;;;;;;4.18;1.70;;;;;;;;;;4361443;32;20181;-79
2020/12/14 01:19:49;;;;;;;3.67;1.60;;;;;;;;;;4375097;32;20470;-79
2020/12/14 01:22:14;;;;;;;3.45;1.58;;;;;;;;;;4374579;32;20150;-80
2020/12/14 01:24:40;;;;;;;3.78;1.60;;;;;;;;;;4377066;32;20208;-79
2020/12/14 01:27:05;;;;;;;4.12;1.50;;;;;;;;;;4364335;32;20159;-79
2020/12/14 01:29:38;;;;;;;4.37;1.73;;;;;;;;;;4363646;32;20209;-79
2020/12/14 01:32:03;;;;;;;5.23;1.83;;;;;;;;;;4364324;32;20166;-79
2020/12/14 01:34:28;;;;;;;4.60;1.83;;;;;;;;;;4364200;32;20511;-79
2020/12/14 01:36:54;;;;;;;4.97;1.90;;;;;;;;;;4364073;32;20170;-79
2020/12/14 01:39:19;;;;;;;5.53;2.20;;;;;;;;;;4364262;32;20459;-79
2020/12/14 01:41:44;;;;;;;7.00;1.80;;;;;;;;;;4377767;32;20189;-80
2020/12/14 01:44:09;;;;;;;5.17;1.97;;;;;;;;;;4363635;32;20201;-80
2020/12/14 01:46:38;;;;;;;3.60;1.80;;;;;;;;;;4363651;32;20186;-79
2020/12/14 01:49:03;;;;;;;5.77;1.80;;;;;;;;;;4376996;32;20590;-79
2020/12/14 01:51:29;;;;;;;5.10;1.85;;;;;;;;;;4363399;32;20174;-79
2020/12/14 01:53:59;;;;;;;6.47;3.35;;;;;;;;;;4363395;32;20170;-79
2020/12/14 01:56:25;;;;;;;4.43;1.93;;;;;;;;;;4364334;32;20606;-79
2020/12/14 01:58:52;;;;;;;6.72;1.95;;;;;;;;;;4377249;32;20170;-80
2020/12/14 02:01:17;;;;;;;3.22;1.80;;;;;;;;;;4377435;32;20143;-79
2020/12/14 02:03:42;;;;;;;3.33;2.00;;;;;;;;;;4377342;32;20226;-79
2020/12/14 02:06:08;;;;;;;5.60;2.08;;;;;;;;;;4363158;32;20163;-79
2020/12/14 02:08:34;;;;;;;4.32;2.20;;;;;;;;;;4376795;32;20438;-79
2020/12/14 02:11:01;;;;;;;8.80;4.43;;;;;;;;;;4377151;32;20529;-79
2020/12/14 02:13:27;;;;;;;3.62;2.65;;;;;;;;;;4377799;32;20143;-79
2020/12/14 02:15:52;;;;;;;8.55;3.10;;;;;;;;;;4363601;32;20631;-79
2020/12/14 02:18:18;;;;;;;5.23;2.50;;;;;;;;;;4376789;32;20139;-79
2020/12/14 02:20:43;;;;;;;3.07;2.47;;;;;;;;;;4376754;32;20486;-79
2020/12/14 02:23:08;;;;;;;5.90;2.75;;;;;;;;;;4376477;32;20591;-79
2020/12/14 02:25:39;;;;;;;5.60;2.97;;;;;;;;;;4362978;32;20174;-79
2020/12/14 02:28:04;;;;;;;6.70;3.07;;;;;;;;;;4362996;32;20166;-79
2020/12/14 02:30:30;;;;;;;4.97;3.00;;;;;;;;;;4377339;32;20209;-79
2020/12/14 02:32:58;;;;;;;7.30;3.30;;;;;;;;;;4362871;32;20216;-78
2020/12/14 02:35:23;;;;;;;9.75;4.15;;;;;;;;;;4362483;32;20513;-78
2020/12/14 02:37:48;;;;;;;7.63;3.73;;;;;;;;;;4377019;32;20138;-78
2020/12/14 02:40:13;;;;;;;7.77;3.60;;;;;;;;;;4376815;32;20182;-78
2020/12/14 02:42:41;;;;;;;8.32;4.10;;;;;;;;;;4377281;32;20588;-78
2020/12/14 02:45:07;;;;;;;5.87;4.00;;;;;;;;;;4376061;32;20139;-78
2020/12/14 02:47:32;;;;;;;9.63;4.20;;;;;;;;;;4376482;32;20521;-78
2020/12/14 02:49:57;;;;;;;7.80;4.50;;;;;;;;;;4376617;32;20139;-78
2020/12/14 02:52:25;;;;;;;6.70;4.33;;;;;;;;;;4376212;32;20139;-78
2020/12/14 02:54:50;;;;;;;12.33;5.23;;;;;;;;;;4362526;32;20225;-78
2020/12/14 02:57:15;;;;;;;7.43;4.17;;;;;;;;;;4362914;32;20198;-78
2020/12/14 02:59:41;;;;;;;8.77;4.40;;;;;;;;;;4376307;32;20151;-78
2020/12/14 03:02:06;;;;;;;10.60;5.10;;;;;;;;;;4376011;32;20140;-78
2020/12/14 03:04:32;;;;;;;8.40;4.97;;;;;;;;;;4362407;32;20513;-78
2020/12/14 03:06:57;;;;;;;7.83;4.37;;;;;;;;;;4362466;32;20491;-78
2020/12/14 03:09:22;;;;;;;9.32;5.30;;;;;;;;;;4376415;32;20139;-78
2020/12/14 03:11:48;;;;;;;5.87;4.80;;;;;;;;;;4376074;32;20222;-78
2020/12/14 03:14:14;;;;;;;8.13;5.03;;;;;;;;;;4376303;32;20135;-78
2020/12/14 03:16:43;;;;;;;5.77;4.50;;;;;;;;;;4362298;32;20189;-78
2020/12/14 03:19:08;;;;;;;6.37;4.70;;;;;;;;;;4362206;32;20261;-78
2020/12/14 03:21:33;;;;;;;7.60;5.13;;;;;;;;;;4362405;32;20222;-78
2020/12/14 03:23:59;;;;;;;6.87;4.93;;;;;;;;;;4362206;32;20171;-78
2020/12/14 03:26:24;;;;;;;6.93;4.90;;;;;;;;;;4375897;32;20147;-78
2020/12/14 03:28:49;;;;;;;9.97;5.47;;;;;;;;;;4362154;32;20225;-78
2020/12/14 03:31:15;;;;;;;7.67;5.17;;;;;;;;;;4362011;32;20178;-78
2020/12/14 03:33:40;;;;;;;8.27;5.37;;;;;;;;;;4362189;32;20251;-78
2020/12/14 03:36:05;;;;;;;8.53;5.50;;;;;;;;;;4375790;32;20204;-78
2020/12/14 03:38:30;;;;;;;8.33;6.00;;;;;;;;;;4376114;32;20170;-78
2020/12/14 03:40:56;;;;;;;9.97;6.23;;;;;;;;;;4375895;32;20474;-79
2020/12/14 03:43:21;;;;;;;7.53;5.77;;;;;;;;;;4376016;32;20146;-78
2020/12/14 03:45:48;;;;;;;10.63;6.53;;;;;;;;;;4361278;32;20174;-78
2020/12/14 03:48:14;;;;;;;12.20;6.97;;;;;;;;;;4361971;32;20232;-78
2020/12/14 03:50:42;;;;;;;8.27;5.83;;;;;;;;;;4361985;32;20163;-78
2020/12/14 03:53:08;;;;;;;9.57;6.83;;;;;;;;;;4375669;32;20544;-78
2020/12/14 03:55:33;;;;;;;10.50;7.07;;;;;;;;;;4361608;32;20224;-78
2020/12/14 03:57:58;;;;;;;11.00;7.27;;;;;;;;;;4375730;32;20135;-78
2020/12/14 04:00:24;;;;;;;11.83;7.90;;;;;;;;;;4375409;32;20214;-78
2020/12/14 04:02:49;;;;;;;11.45;7.68;;;;;;;;;;4375095;32;20146;-78
2020/12/14 04:05:14;;;;;;;10.23;7.10;;;;;;;;;;4376039;32;20158;-78
2020/12/14 04:07:40;;;;;;;14.40;7.50;;;;;;;;;;4375661;32;20162;-78
2020/12/14 04:10:05;;;;;;;12.02;7.35;;;;;;;;;;4375333;32;20138;-78
2020/12/14 04:12:30;;;;;;;12.47;7.97;;;;;;;;;;4375084;32;20189;-78
2020/12/14 04:14:55;;;;;;;12.73;7.43;;;;;;;;;;4375219;32;20194;-78
2020/12/14 04:17:21;;;;;;;10.97;7.33;;;;;;;;;;4375544;32;20241;-78
2020/12/14 04:19:46;;;;;;;12.10;7.93;;;;;;;;;;4361889;32;20166;-77
2020/12/14 04:22:11;;;;;;;10.20;7.37;;;;;;;;;;4375840;32;20138;-78
2020/12/14 04:24:36;;;;;;;13.77;7.73;;;;;;;;;;4374886;32;20197;-78
2020/12/14 04:27:03;;;;;;;12.63;8.10;;;;;;;;;;4375752;32;20162;-78
2020/12/14 04:29:28;;;;;;;12.73;8.70;;;;;;;;;;4375371;32;20533;-78
2020/12/14 04:31:56;;;;;;;11.00;7.63;;;;;;;;;;4374853;32;20131;-77
2020/12/14 04:34:21;;;;;;;13.03;8.23;;;;;;;;;;4374808;32;20142;-78
2020/12/14 04:36:48;;;;;;;13.50;8.80;;;;;;;;;;4375043;32;20178;-78
2020/12/14 04:39:13;;;;;;;12.50;8.93;;;;;;;;;;4375201;32;20143;-78
2020/12/14 04:41:39;;;;;;;13.57;8.47;;;;;;;;;;4375182;32;20135;-78
2020/12/14 04:44:04;;;;;;;14.43;9.13;;;;;;;;;;4361102;32;20254;-78
2020/12/14 04:46:32;;;;;;;16.20;8.97;;;;;;;;;;4361137;32;20218;-78
2020/12/14 04:48:58;;;;;;;15.43;9.25;;;;;;;;;;4361213;32;20174;-78
2020/12/14 04:51:24;;;;;;;14.23;9.45;;;;;;;;;;4361383;32;20196;-78
2020/12/14 04:53:50;;;;;;;13.87;9.23;;;;;;;;;;4374718;32;20242;-78
2020/12/14 04:56:18;;;;;;;15.33;9.60;;;;;;;;;;4374949;32;20135;-78
2020/12/14 04:58:43;;;;;;;12.97;8.63;;;;;;;;;;4377381;32;20161;-78
2020/12/14 05:01:11;;;;;;;13.87;9.47;;;;;;;;;;4364191;32;20519;-78
2020/12/14 05:03:36;;;;;;;13.33;8.53;;;;;;;;;;4364501;32;20241;-78
2020/12/14 05:06:01;;;;;;;12.43;8.63;;;;;;;;;;4378080;32;20544;-78
2020/12/14 05:08:27;;;;;;;11.95;8.10;;;;;;;;;;4378285;32;20488;-78
2020/12/14 05:10:53;;;;;;;12.67;8.60;;;;;;;;;;4364016;32;20634;-78
2020/12/14 05:13:18;;;;;;;11.33;8.17;;;;;;;;;;4378351;32;20521;-78
2020/12/14 05:15:43;;;;;;;14.17;8.80;;;;;;;;;;4377515;32;20197;-77
2020/12/14 05:18:11;;;;;;;12.63;8.60;;;;;;;;;;4364345;32;20171;-78
2020/12/14 05:20:37;;;;;;;11.87;8.90;;;;;;;;;;4377513;32;20193;-78
2020/12/14 05:23:03;;;;;;;12.90;8.77;;;;;;;;;;4377600;32;20151;-78
2020/12/14 05:25:29;;;;;;;12.03;8.13;;;;;;;;;;4364189;32;20189;-78
2020/12/14 05:28:02;;;;;;;11.30;7.87;;;;;;;;;;4363733;32;20220;-78
2020/12/14 05:30:40;;;;;;;10.67;7.70;;;;;;;;;;4363752;32;20177;-78
2020/12/14 05:33:06;;;;;;;12.02;8.60;;;;;;;;;;4364422;32;20174;-78
2020/12/14 05:35:34;;;;;;;11.18;8.13;;;;;;;;;;4378630;32;20163;-78
2020/12/14 05:38:13;;;;;;;12.03;7.80;;;;;;;;;;4378578;32;20594;-77
2020/12/14 05:40:38;;;;;;;9.77;7.43;;;;;;;;;;4363462;32;20193;-78
2020/12/14 05:43:10;;;;;;;11.35;8.18;;;;;;;;;;4363499;32;20175;-78
2020/12/14 05:45:35;;;;;;;11.27;7.82;;;;;;;;;;4378203;32;20167;-77
2020/12/14 05:48:01;;;;;;;11.98;7.68;;;;;;;;;;4377584;32;20533;-78
2020/12/14 05:50:26;;;;;;;11.68;7.97;;;;;;;;;;4377031;32;20181;-78
2020/12/14 05:52:52;;;;;;;10.32;7.87;;;;;;;;;;4363382;32;20190;-78
2020/12/14 05:55:20;;;;;;;11.80;7.80;;;;;;;;;;4377076;32;20214;-78
2020/12/14 05:57:50;;;;;;;9.57;7.35;;;;;;;;;;4377674;32;20588;-78
2020/12/14 06:00:15;;;;;;;10.43;7.47;;;;;;;;;;4377808;32;20532;-78
2020/12/14 06:02:41;;;;;;;10.38;7.82;;;;;;;;;;4363076;32;20244;-78
2020/12/14 06:05:06;;;;;;;12.60;8.48;;;;;;;;;;4363329;32;20170;-77
2020/12/14 06:07:32;;;;;;;12.82;8.10;;;;;;;;;;4377767;32;20154;-78
2020/12/14 06:10:10;;;;;;;11.85;8.07;;;;;;;;;;4376997;32;20146;-77
2020/12/14 06:12:41;;;;;;;14.90;8.88;;;;;;;;;;4363197;32;20189;-77
2020/12/14 06:15:08;;;;;;;14.00;8.67;;;;;;;;;;4376563;32;20143;-79
2020/12/14 06:17:34;;;;;;;12.18;8.68;;;;;;;;;;4363619;32;20197;-77
2020/12/14 06:20:04;;;;;;;16.37;9.05;;;;;;;;;;4364100;32;20162;-78
2020/12/14 06:22:31;;;;;;;14.68;9.07;;;;;;;;;;4362814;32;20196;-77
2020/12/14 06:25:00;;;;;;;11.55;9.00;;;;;;;;;;4376601;32;20143;-77
2020/12/14 06:27:26;;;;;;;15.88;9.45;;;;;;;;;;4376833;32;20162;-77
2020/12/14 06:29:51;;;;;;;15.20;9.43;;;;;;;;;;4376674;32;20169;-77
2020/12/14 06:32:33;;;;;;;14.90;9.30;;;;;;;;;;4377014;32;20143;-77
2020/12/14 06:34:58;;;;;;;14.02;8.93;;;;;;;;;;4362104;32;20146;-77
2020/12/14 06:37:24;;;;;;;16.12;8.77;;;;;;;;;;4361907;32;20135;-78
2020/12/14 06:39:56;;;;;;;14.25;9.43;;;;;;;;;;4361425;32;20173;-78
2020/12/14 06:42:22;;;;;;;15.25;9.30;;;;;;;;;;4348692;33;20246;-79
2020/12/14 06:44:48;;;;;;;12.70;8.60;;;;;;;;;;4361544;33;20143;-77
2020/12/14 06:47:14;;;;;;;13.43;8.32;;;;;;;;;;4361495;32;20202;-77
2020/12/14 06:49:40;;;;;;;12.93;9.40;;;;;;;;;;4347540;33;20228;-77
2020/12/14 06:52:05;;;;;;;17.02;10.15;;;;;;;;;;4362030;32;20147;-77
2020/12/14 06:54:40;;;;;;;14.35;9.05;;;;;;;;;;4347841;33;20206;-77
2020/12/14 06:57:06;;;;;;;12.37;9.18;;;;;;;;;;4347934;33;20498;-77
2020/12/14 06:59:31;;;;;;;13.77;9.38;;;;;;;;;;4348765;33;20190;-77
2020/12/14 07:01:57;;;;;;;14.70;9.65;;;;;;;;;;4361766;32;20170;-78
2020/12/14 07:04:28;;;;;;;13.98;9.43;;;;;;;;;;4360923;32;20151;-78
2020/12/14 07:06:54;;;;;;;16.30;9.35;;;;;;;;;;4361340;32;20201;-77
2020/12/14 07:09:36;;;;;;;13.07;8.98;;;;;;;;;;4347769;33;20162;-77
2020/12/14 07:12:08;;;;;;;14.70;9.48;;;;;;;;;;4347103;33;20230;-77
2020/12/14 07:14:33;;;;;;;13.32;9.50;;;;;;;;;;4347235;33;20615;-78
2020/12/14 07:17:01;;;;;;;13.18;9.75;;;;;;;;;;4347719;33;20175;-77
2020/12/14 07:19:36;;;;;;;20.08;11.05;;;;;;;;;;4360619;32;20170;-77
2020/12/14 07:22:01;;;;;;;17.35;9.95;;;;;;;;;;4359740;32;20173;-78
2020/12/14 07:24:36;;;;;;;13.45;10.18;;;;;;;;;;4360692;32;20187;-77
2020/12/14 07:27:08;;;;;;;13.10;9.77;;;;;;;;;;4347432;33;20598;-77
2020/12/14 07:29:33;;;;;;;16.20;9.82;;;;;;;;;;4361309;32;20583;-78
2020/12/14 07:32:02;;;;;;;16.62;11.35;;;;;;;;;;4361814;32;20138;-78
2020/12/14 07:34:28;;;;;;;17.10;10.73;;;;;;;;;;4353515;32;20182;-76
2020/12/14 07:36:53;;;;;;;13.80;11.07;;;;;;;;;;4361344;32;20518;-77
2020/12/14 07:39:18;;;;;;;16.35;11.15;;;;;;;;;;4361447;32;20174;-77
2020/12/14 07:41:47;;;;;;;13.52;10.35;;;;;;;;;;4359706;32;20162;-77
2020/12/14 07:44:12;;;;;;;14.55;10.82;;;;;;;;;;4361958;32;20179;-77
2020/12/14 07:46:38;;;;;;;13.90;10.45;;;;;;;;;;4361276;32;20179;-76
2020/12/14 07:49:05;;;;;;;14.50;10.05;;;;;;;;;;4361886;32;20170;-76
2020/12/14 07:51:31;;;;;;;13.68;10.27;;;;;;;;;;4375563;32;20491;-77
2020/12/14 07:54:04;;;;;;;14.27;10.57;;;;;;;;;;4362392;32;20162;-77
2020/12/14 07:56:29;;;;;;;12.23;9.77;;;;;;;;;;4361381;32;20166;-76
2020/12/14 07:58:55;;;;;;;14.65;10.93;;;;;;;;;;4375073;32;20161;-77
2020/12/14 08:01:20;;;;;;;12.98;10.27;;;;;;;;;;4361826;32;20255;-77
2020/12/14 08:03:46;;;;;;;13.80;10.52;;;;;;;;;;4360970;32;20204;-77
2020/12/14 08:06:15;;;;;;;14.73;10.50;;;;;;;;;;4359107;32;20692;-77
2020/12/14 08:08:41;;;;;;;12.63;9.70;;;;;;;;;;4357611;32;20224;-77
2020/12/14 08:11:08;;;;;;;12.52;10.05;;;;;;;;;;4359952;32;20166;-77
2020/12/14 08:13:35;;;;;;;12.63;9.85;;;;;;;;;;4375689;32;20161;-77
2020/12/14 08:16:02;;;;;;;12.00;9.73;;;;;;;;;;4374893;32;20221;-77
2020/12/14 08:18:28;;;;;;;15.05;10.27;;;;;;;;;;4361458;32;20209;-77
2020/12/14 08:20:56;;;;;;;11.25;9.13;;;;;;;;;;4360522;32;20161;-77
2020/12/14 08:23:30;;;;;;;12.85;9.77;;;;;;;;;;4374673;32;20240;-77
2020/12/14 08:25:55;;;;;;;10.55;8.60;;;;;;;;;;4361490;32;20154;-77
2020/12/14 08:28:41;;;;;;;10.55;9.32;;;;;;;;;;4359916;32;20674;-77
2020/12/14 08:31:14;;;;;;;10.40;9.30;;;;;;;;;;4374876;32;20471;-78
2020/12/14 08:33:52;;;;;;;10.38;8.80;;;;;;;;;;4361063;32;20197;-77
2020/12/14 08:36:20;;;;;;;10.80;8.27;;;;;;;;;;4360888;32;20338;-77
2020/12/14 08:38:45;;;;;;;8.65;7.60;;;;;;;;;;4360905;32;20166;-77
2020/12/14 08:41:18;;;;;;;11.45;7.25;;;;;;;;;;4374706;32;20228;-78
2020/12/14 08:43:43;;;;;;;10.50;7.37;;;;;;;;;;4360416;32;20182;-77
2020/12/14 08:46:09;;;;;;;7.35;6.50;;;;;;;;;;4374127;32;20179;-77
2020/12/14 08:48:49;;;;;;;7.55;6.53;;;;;;;;;;4361190;32;20575;-77
2020/12/14 08:51:19;;;;;;;8.25;6.55;;;;;;;;;;4360581;32;20200;-77
2020/12/14 08:53:45;;;;;;;8.75;5.95;;;;;;;;;;4360719;32;20600;-77
2020/12/14 08:56:16;;;;;;;6.12;5.53;;;;;;;;;;4359347;32;20222;-77
2020/12/14 08:58:58;;;;;;;6.30;5.07;;;;;;;;;;4374351;32;20434;-78
2020/12/14 09:01:44;;;;;;;7.75;5.07;;;;;;;;;;4360974;32;20277;-78
2020/12/14 09:04:09;;;;;;;5.57;5.05;;;;;;;;;;4366108;32;20189;-79
2020/12/14 09:06:35;;;;;;;8.50;5.57;;;;;;;;;;4361215;32;20611;-79
2020/12/14 09:09:14;;;;;;;6.75;5.32;;;;;;;;;;4364028;32;20198;-77
2020/12/14 09:11:42;;;;;;;7.03;5.30;;;;;;;;;;4374205;32;20130;-78
2020/12/14 09:14:08;;;;;;;7.18;4.93;;;;;;;;;;4361127;32;20212;-79
2020/12/14 09:16:34;;;;;;;7.32;4.68;;;;;;;;;;4374126;32;20205;-78
2020/12/14 09:18:59;;;;;;;5.32;4.72;;;;;;;;;;4374500;32;20139;-77
2020/12/14 09:21:25;;;;;;;5.00;4.50;;;;;;;;;;4360602;32;20166;-78
2020/12/14 09:24:09;;;;;;;7.85;5.05;;;;;;;;;;4374145;32;20174;-78
2020/12/14 09:26:35;;;;;;;5.43;4.60;;;;;;;;;;4360193;32;20288;-78
2020/12/14 09:29:00;;;;;;;5.40;4.28;;;;;;;;;;4360394;32;20210;-78
2020/12/14 09:31:25;;;;;;;8.45;4.37;;;;;;;;;;4360611;32;20171;-78
2020/12/14 09:33:51;;;;;;;4.50;3.90;;;;;;;;;;4354166;33;20242;-78
2020/12/14 09:36:16;;;;;;;5.12;4.15;;;;;;;;;;4345979;33;20159;-77
2020/12/14 09:38:41;;;;;;;6.18;4.00;;;;;;;;;;4358970;33;20134;-77
2020/12/14 09:41:07;;;;;;;6.45;4.18;;;;;;;;;;4359127;33;20158;-77
2020/12/14 09:43:32;;;;;;;7.40;3.97;;;;;;;;;;4359244;32;20151;-77
2020/12/14 09:45:57;;;;;;;4.85;4.28;;;;;;;;;;4362117;32;20159;-78
2020/12/14 09:48:23;;;;;;;4.75;3.85;;;;;;;;;;4362010;32;20139;-78
2020/12/14 09:50:48;;;;;;;6.55;4.65;;;;;;;;;;4361972;32;20160;-78
2020/12/14 09:53:13;;;;;;;6.85;4.18;;;;;;;;;;4348764;32;20167;-80
2020/12/14 09:55:41;;;;;;;7.40;4.40;;;;;;;;;;4362681;32;20232;-79
2020/12/14 09:58:06;;;;;;;6.45;4.37;;;;;;;;;;4363217;32;20174;-78
2020/12/14 10:00:32;;;;;;;8.30;4.03;;;;;;;;;;4363151;32;20260;-79
2020/12/14 10:02:57;;;;;;;9.35;4.30;;;;;;;;;;4363037;32;20166;-78
2020/12/14 10:05:22;;;;;;;6.05;4.00;;;;;;;;;;4363167;32;20166;-79
2020/12/14 10:07:48;;;;;;;4.78;3.97;;;;;;;;;;4362962;32;20174;-79
2020/12/14 10:10:13;;;;;;;6.55;4.40;;;;;;;;;;4362884;32;20161;-79
2020/12/14 10:12:41;;;;;;;5.30;3.90;;;;;;;;;;4360168;32;20229;-78
2020/12/14 10:15:09;;;;;;;4.57;4.12;;;;;;;;;;4361407;32;20243;-79
2020/12/14 10:17:35;;;;;;;4.53;3.72;;;;;;;;;;4362888;32;20170;-79
2020/12/14 10:20:00;;;;;;;5.65;3.58;;;;;;;;;;4350574;32;20231;-79
2020/12/14 10:22:25;;;;;;;4.15;3.60;;;;;;;;;;4362746;32;20174;-80
2020/12/14 10:24:51;;;;;;;5.22;3.87;;;;;;;;;;4362259;32;20194;-80
2020/12/14 10:27:16;;;;;;;5.75;3.50;;;;;;;;;;4376192;32;20598;-79
2020/12/14 10:29:44;;;;;;;6.53;3.37;;;;;;;;;;4366339;32;20572;-78
2020/12/14 10:32:09;;;;;;;6.37;3.40;;;;;;;;;;4356597;32;20217;-79
2020/12/14 10:34:35;;;;;;;4.50;3.33;;;;;;;;;;4362545;32;20228;-80
2020/12/14 10:37:00;;;;;;;4.10;3.70;;;;;;;;;;4354988;32;20214;-80
2020/12/14 10:39:25;;;;;;;5.00;3.20;;;;;;;;;;4347623;33;20591;-83
2020/12/14 10:41:51;;;;;;;6.97;3.67;;;;;;;;;;4347631;33;20295;-80
2020/12/14 10:44:16;;;;;;;5.12;3.50;;;;;;;;;;4347409;33;20167;-79
2020/12/14 10:46:42;;;;;;;6.65;3.47;;;;;;;;;;4347848;33;20193;-79
2020/12/14 10:49:09;;;;;;;5.18;2.83;;;;;;;;;;4359227;32;20177;-80
2020/12/14 10:51:34;;;;;;;6.30;3.00;;;;;;;;;;4376488;32;20139;-79
2020/12/14 10:54:05;;;;;;;5.37;3.15;;;;;;;;;;4362166;32;20189;-78
2020/12/14 10:56:30;;;;;;;5.05;2.90;;;;;;;;;;4363022;32;20151;-79
2020/12/14 10:58:58;;;;;;;6.32;3.70;;;;;;;;;;4358679;33;20196;-78
2020/12/14 11:01:24;;;;;;;4.07;3.05;;;;;;;;;;4347331;33;20163;-78
2020/12/14 11:03:49;;;;;;;3.87;2.78;;;;;;;;;;4361802;32;20147;-79
2020/12/14 11:06:14;;;;;;;3.83;2.62;;;;;;;;;;4347356;33;20234;-79
2020/12/14 11:08:40;;;;;;;5.10;2.80;;;;;;;;;;4347233;33;20181;-80
2020/12/14 11:11:05;;;;;;;7.30;2.85;;;;;;;;;;4347532;33;20164;-79
2020/12/14 11:13:30;;;;;;;5.35;2.92;;;;;;;;;;4347548;33;20199;-79
2020/12/14 11:15:58;;;;;;;3.78;2.58;;;;;;;;;;4347118;33;20181;-80
2020/12/14 11:18:24;;;;;;;3.37;2.55;;;;;;;;;;4346998;33;20163;-79
2020/12/14 11:20:49;;;;;;;4.78;2.78;;;;;;;;;;4346944;33;20198;-78
2020/12/14 11:23:14;;;;;;;3.10;2.72;;;;;;;;;;4346810;33;20171;-78
2020/12/14 11:25:40;;;;;;;6.45;3.42;;;;;;;;;;4347068;33;20224;-79
2020/12/14 11:28:05;;;;;;;3.65;3.20;;;;;;;;;;4346875;33;20233;-79
2020/12/14 11:30:33;;;;;;;5.50;3.87;;;;;;;;;;4347057;33;20195;-79
2020/12/14 11:33:01;;;;;;;6.55;3.60;;;;;;;;;;4347095;33;20181;-79
2020/12/14 11:35:29;;;;;;;5.50;3.60;;;;;;;;;;4346987;33;20151;-79
2020/12/14 11:38:00;;;;;;;3.47;3.15;;;;;;;;;;4350879;32;20154;-79
2020/12/14 11:40:32;;;;;;;4.53;3.90;;;;;;;;;;4361697;32;20163;-79
2020/12/14 11:42:57;;;;;;;7.05;3.90;;;;;;;;;;4361742;32;20250;-79
2020/12/14 11:45:23;;;;;;;6.07;3.85;;;;;;;;;;4361455;32;20785;-79
2020/12/14 11:47:48;;;;;;;6.85;4.10;;;;;;;;;;4362368;32;20159;-79
2020/12/14 11:50:14;;;;;;;7.00;3.85;;;;;;;;;;4362236;32;20163;-79
2020/12/14 11:52:41;;;;;;;6.65;4.05;;;;;;;;;;4358794;32;20218;-80
2020/12/14 11:55:07;;;;;;;5.30;4.10;;;;;;;;;;4361794;32;20163;-80
2020/12/14 11:57:32;;;;;;;10.38;4.85;;;;;;;;;;4361443;32;20262;-80
2020/12/14 12:00:00;;;;;;;6.93;3.90;;;;;;;;;;4361341;32;20167;-79
2020/12/14 12:02:25;;;;;;;6.28;4.10;;;;;;;;;;4361334;32;20175;-79
2020/12/14 12:04:50;;;;;;;6.65;4.28;;;;;;;;;;4361190;32;20233;-79
2020/12/14 12:07:16;;;;;;;7.20;4.70;;;;;;;;;;4360488;32;20174;-79
2020/12/14 12:09:41;;;;;;;6.30;4.15;;;;;;;;;;4362049;32;20162;-79
2020/12/14 12:12:07;;;;;;;8.05;4.28;;;;;;;;;;4361187;32;20213;-80
2020/12/14 12:14:32;;;;;;;4.50;3.78;;;;;;;;;;4361128;32;20201;-79
2020/12/14 12:16:58;;;;;;;7.30;4.03;;;;;;;;;;4361733;32;20207;-79
2020/12/14 12:19:23;;;;;;;8.40;4.35;;;;;;;;;;4361573;32;20567;-79
2020/12/14 12:21:51;;;;;;;6.20;4.15;;;;;;;;;;4361389;32;20167;-79
2020/12/14 12:24:16;;;;;;;5.95;3.58;;;;;;;;;;4360372;32;20162;-81
2020/12/14 12:26:46;;;;;;;6.60;3.60;;;;;;;;;;4360669;32;20185;-80
2020/12/14 12:29:14;;;;;;;6.62;3.55;;;;;;;;;;4361327;32;20552;-80
2020/12/14 12:31:40;;;;;;;6.43;3.87;;;;;;;;;;4360877;32;20226;-79
2020/12/14 12:34:05;;;;;;;5.82;3.75;;;;;;;;;;4361342;32;20158;-79
2020/12/14 12:36:30;;;;;;;8.68;3.80;;;;;;;;;;4361054;32;20546;-79
2020/12/14 12:38:55;;;;;;;6.12;3.70;;;;;;;;;;4357513;32;20213;-80
2020/12/14 12:41:21;;;;;;;6.50;4.50;;;;;;;;;;4360839;32;20224;-80
2020/12/14 12:43:46;;;;;;;6.82;4.32;;;;;;;;;;4375227;32;20185;-79
2020/12/14 12:46:11;;;;;;;5.53;3.90;;;;;;;;;;4361004;32;20170;-80
2020/12/14 12:48:39;;;;;;;6.65;4.40;;;;;;;;;;4361343;32;20228;-80
2020/12/14 12:51:06;;;;;;;7.62;4.55;;;;;;;;;;4361489;32;20162;-80
2020/12/14 12:53:32;;;;;;;10.10;4.47;;;;;;;;;;4361226;32;20270;-80
2020/12/14 12:55:57;;;;;;;9.18;5.10;;;;;;;;;;4360827;32;20220;-79
2020/12/14 12:58:22;;;;;;;5.87;4.15;;;;;;;;;;4348914;32;20194;-79
2020/12/14 13:00:48;;;;;;;8.25;5.07;;;;;;;;;;4360904;32;20163;-80
2020/12/14 13:03:13;;;;;;;6.10;4.22;;;;;;;;;;4360603;32;20208;-80
2020/12/14 13:05:40;;;;;;;7.12;3.90;;;;;;;;;;4360529;32;20645;-79
2020/12/14 13:08:06;;;;;;;6.90;4.72;;;;;;;;;;4360886;32;20163;-79
2020/12/14 13:10:31;;;;;;;6.78;4.70;;;;;;;;;;4360279;32;20225;-79
2020/12/14 13:12:56;;;;;;;6.28;4.80;;;;;;;;;;4360496;32;20166;-79
2020/12/14 13:15:25;;;;;;;5.95;4.78;;;;;;;;;;4360970;32;20166;-80
2020/12/14 13:17:50;;;;;;;6.22;5.18;;;;;;;;;;4360500;32;20181;-79
2020/12/14 13:20:15;;;;;;;6.12;4.90;;;;;;;;;;4362262;32;20166;-80
2020/12/14 13:22:41;;;;;;;9.52;5.40;;;;;;;;;;4363275;32;20202;-80
2020/12/14 13:25:06;;;;;;;8.02;5.32;;;;;;;;;;4363711;32;20468;-79
2020/12/14 13:27:34;;;;;;;8.02;5.40;;;;;;;;;;4363201;32;20167;-80
2020/12/14 13:29:59;;;;;;;7.65;5.35;;;;;;;;;;4363403;32;20197;-80
2020/12/14 13:32:25;;;;;;;8.32;5.53;;;;;;;;;;4363918;32;20158;-79
2020/12/14 13:34:50;;;;;;;7.95;5.75;;;;;;;;;;4377030;32;20170;-80
2020/12/14 13:37:16;;;;;;;10.85;6.12;;;;;;;;;;4363180;32;20487;-79
2020/12/14 13:39:41;;;;;;;7.32;5.95;;;;;;;;;;4363330;32;20198;-79
2020/12/14 13:42:06;;;;;;;9.00;6.00;;;;;;;;;;4363093;32;20214;-79
2020/12/14 13:44:31;;;;;;;8.02;5.40;;;;;;;;;;4363113;32;20607;-79
2020/12/14 13:47:02;;;;;;;6.68;5.35;;;;;;;;;;4362929;32;20630;-79
2020/12/14 13:49:33;;;;;;;7.72;5.68;;;;;;;;;;4377578;32;20599;-79
2020/12/14 13:51:58;;;;;;;7.35;5.43;;;;;;;;;;4363927;32;20653;-79
2020/12/14 13:54:24;;;;;;;10.70;6.75;;;;;;;;;;4363084;32;20167;-79
2020/12/14 13:56:49;;;;;;;9.35;5.95;;;;;;;;;;4362871;32;20159;-80
2020/12/14 13:59:20;;;;;;;9.13;5.72;;;;;;;;;;4362664;32;20186;-80
2020/12/14 14:01:49;;;;;;;8.30;5.57;;;;;;;;;;4376941;32;20154;-80
2020/12/14 14:04:14;;;;;;;9.32;6.00;;;;;;;;;;4362522;32;20192;-80
2020/12/14 14:06:39;;;;;;;8.40;6.03;;;;;;;;;;4363000;32;20163;-80
2020/12/14 14:09:05;;;;;;;8.05;6.35;;;;;;;;;;4362611;32;20182;-79
2020/12/14 14:11:30;;;;;;;11.98;6.10;;;;;;;;;;4361960;32;20178;-79
2020/12/14 14:13:56;;;;;;;10.52;5.90;;;;;;;;;;4362573;32;20654;-79
2020/12/14 14:16:23;;;;;;;9.30;5.50;;;;;;;;;;4362896;32;20268;-79
2020/12/14 14:18:50;;;;;;;8.32;5.82;;;;;;;;;;4363420;32;20175;-79
2020/12/14 14:21:15;;;;;;;8.05;5.50;;;;;;;;;;4363025;32;20185;-79
2020/12/14 14:23:41;;;;;;;11.18;5.05;;;;;;;;;;4362103;32;20213;-79
2020/12/14 14:26:10;;;;;;;8.85;5.32;;;;;;;;;;4362197;32;20715;-80
2020/12/14 14:28:35;;;;;;;8.40;4.87;;;;;;;;;;4363215;32;20159;-79
2020/12/14 14:31:00;;;;;;;10.90;5.28;;;;;;;;;;4361867;32;20704;-79
2020/12/14 14:33:25;;;;;;;10.25;6.05;;;;;;;;;;4362073;32;20638;-79
2020/12/14 14:35:51;;;;;;;7.90;5.43;;;;;;;;;;4362803;32;20214;-79